Time;durP1;ratioP1;P1;durP2;ratioP2;P2;SDS_P1;SDS_P2;PMS_P1;PMS_P2;Temp;Humidity;BMP_temperature;BMP_pressure;BME280_temperature;BME280_humidity;BME280_pressure;Samples;Min_cycle;Max_cycle;Signal;HPM_P1;HPM_P2
2023/02/21 02:14:44;;;;;;;10.90;7.72;;;;;;;12.28;79.47;100782.88;5075165;27;97427;-70
2023/02/21 02:17:17;;;;;;;13.10;8.23;;;;;;;12.09;80.21;100779.25;5079425;27;97002;-72
2023/02/21 02:20:03;;;;;;;11.27;8.10;;;;;;;12.03;80.08;100769.78;5081590;27;98540;-72
2023/02/21 02:22:50;;;;;;;12.52;8.80;;;;;;;11.96;80.99;100765.66;5075689;27;98833;-72
2023/02/21 02:25:26;;;;;;;12.88;9.00;;;;;;;12.08;80.13;100772.28;5075794;27;99112;-72
2023/02/21 02:28:15;;;;;;;12.30;8.97;;;;;;;12.25;78.93;100773.28;5081130;27;97059;-71
2023/02/21 02:31:19;;;;;;;12.60;8.77;;;;;;;12.51;78.22;100773.97;5074531;27;96782;-70
2023/02/21 02:34:21;;;;;;;13.52;8.75;;;;;;;12.24;78.52;100768.91;5080344;27;99822;-70
2023/02/21 02:36:51;;;;;;;13.93;9.13;;;;;;;12.40;78.39;100762.97;5077633;27;101638;-72
2023/02/21 02:39:24;;;;;;;11.18;8.25;;;;;;;12.06;79.75;100766.16;5080556;27;98945;-71
2023/02/21 02:42:00;;;;;;;12.90;8.50;;;;;;;12.03;79.95;100769.78;5076335;27;97049;-72
2023/02/21 02:44:34;;;;;;;16.48;9.90;;;;;;;12.17;79.81;100753.31;5080718;27;99022;-71
2023/02/21 02:47:04;;;;;;;13.68;9.05;;;;;;;12.54;77.98;100761.44;5076486;27;98813;-71
2023/02/21 02:49:36;;;;;;;14.50;9.70;;;;;;;12.30;79.20;100760.69;5080957;27;97393;-71
2023/02/21 02:52:04;;;;;;;16.02;10.05;;;;;;;12.54;78.45;100765.84;5076413;27;97366;-71
2023/02/21 02:54:31;;;;;;;16.10;10.32;;;;;;;12.36;79.36;100756.91;5078735;27;97737;-70
2023/02/21 02:56:59;;;;;;;16.45;9.80;;;;;;;12.01;80.29;100765.50;5076482;27;99523;-71
2023/02/21 02:59:32;;;;;;;14.07;9.45;;;;;;;12.08;80.48;100757.22;5079721;27;96825;-71
2023/02/21 03:02:14;;;;;;;15.30;10.45;;;;;;;12.42;79.20;100761.97;5085470;27;96750;-71
2023/02/21 03:05:15;;;;;;;14.75;9.55;;;;;;;12.63;78.01;100761.03;5078922;27;99549;-72
2023/02/21 03:07:54;;;;;;;14.05;9.15;;;;;;;12.50;78.27;100748.38;5079053;27;99206;-71
2023/02/21 03:10:28;;;;;;;13.73;9.52;;;;;;;12.76;77.30;100758.72;5082446;27;98016;-71
2023/02/21 03:13:03;;;;;;;13.10;9.18;;;;;;;12.57;77.85;100757.78;5083407;27;97582;-72
2023/02/21 03:15:35;;;;;;;14.57;9.93;;;;;;;12.60;77.08;100749.72;5086492;27;102781;-71
2023/02/21 03:18:05;;;;;;;15.52;9.43;;;;;;;12.37;77.94;100754.22;5085742;27;99179;-73
2023/02/21 03:20:36;;;;;;;13.70;9.57;;;;;;;12.59;77.39;100753.28;5082619;27;96808;-72
2023/02/21 03:23:05;;;;;;;15.35;9.65;;;;;;;12.65;77.14;100745.94;5081115;27;98607;-72
2023/02/21 03:25:34;;;;;;;13.93;9.52;;;;;;;12.99;75.44;100745.28;5091253;27;99056;-70
2023/02/21 03:28:01;;;;;;;13.25;9.02;;;;;;;12.74;76.06;100764.06;5081353;27;99417;-71
2023/02/21 03:30:29;;;;;;;14.77;8.57;;;;;;;12.78;76.27;100743.59;5077243;27;97042;-71
2023/02/21 03:32:56;;;;;;;13.40;9.32;;;;;;;12.48;77.82;100751.09;5074309;27;97438;-70
2023/02/21 03:35:23;;;;;;;11.93;8.60;;;;;;;12.53;77.17;100749.13;5079150;27;98876;-71
2023/02/21 03:37:53;;;;;;;13.13;9.07;;;;;;;12.51;77.43;100752.75;5081383;27;99415;-70
2023/02/21 03:40:22;;;;;;;12.50;8.50;;;;;;;12.59;77.22;100754.16;5082673;27;98826;-72
2023/02/21 03:42:49;;;;;;;12.82;7.93;;;;;;;12.70;76.22;100753.69;5085539;27;98775;-72
2023/02/21 03:45:16;;;;;;;11.43;8.57;;;;;;;12.72;76.71;100754.47;5080770;27;99297;-72
2023/02/21 03:47:42;;;;;;;12.95;8.35;;;;;;;12.76;76.12;100754.25;5088781;27;97821;-72
2023/02/21 03:50:09;;;;;;;14.27;8.60;;;;;;;13.25;74.22;100746.78;5081683;27;96894;-72
2023/02/21 03:52:36;;;;;;;12.00;8.38;;;;;;;13.16;74.76;100760.47;5082472;27;99148;-72
2023/02/21 03:55:03;;;;;;;12.32;8.57;;;;;;;12.93;75.33;100757.97;5090072;27;99242;-73
2023/02/21 03:57:30;;;;;;;12.38;8.20;;;;;;;12.82;75.68;100755.78;5080434;27;98936;-72
2023/02/21 03:59:57;;;;;;;11.13;8.18;;;;;;;12.76;75.88;100756.06;5074195;27;97170;-73
2023/02/21 04:02:23;;;;;;;12.35;9.10;;;;;;;13.24;74.29;100758.31;5078868;27;97339;-72
2023/02/21 04:04:49;;;;;;;11.93;7.97;;;;;;;12.72;75.58;100768.59;5075819;27;99195;-73
2023/02/21 04:07:17;;;;;;;11.00;7.88;;;;;;;12.90;75.10;100771.34;5088089;27;99133;-73
2023/02/21 04:09:44;;;;;;;11.85;8.60;;;;;;;13.42;73.00;100777.84;5086254;27;96777;-72
2023/02/21 04:12:12;;;;;;;11.90;8.07;;;;;;;13.15;73.25;100770.22;5086967;27;96975;-71
2023/02/21 04:14:39;;;;;;;12.02;8.43;;;;;;;13.44;72.36;100775.97;5079387;27;102496;-70
2023/02/21 04:17:05;;;;;;;9.55;6.43;;;;;;;12.54;75.07;100771.16;5079799;27;98851;-71
2023/02/21 04:19:32;;;;;;;12.88;8.30;;;;;;;12.69;75.65;100774.03;5082319;27;97194;-72
2023/02/21 04:21:58;;;;;;;12.88;7.60;;;;;;;13.12;73.49;100775.69;5083310;27;96808;-71
2023/02/21 04:24:25;;;;;;;13.63;8.60;;;;;;;13.13;73.34;100782.69;5082247;27;98926;-70
2023/02/21 04:26:51;;;;;;;15.02;8.10;;;;;;;13.22;72.80;100785.84;5079319;27;100210;-73
2023/02/21 04:29:19;;;;;;;12.48;8.13;;;;;;;13.38;72.46;100784.22;5086592;27;98667;-70
2023/02/21 04:31:46;;;;;;;13.35;8.77;;;;;;;13.40;71.72;100792.97;5082040;27;96813;-71
2023/02/21 04:34:23;;;;;;;14.38;8.60;;;;;;;13.56;71.88;100801.94;5079925;27;101501;-71
2023/02/21 04:36:50;;;;;;;12.43;8.13;;;;;;;13.33;72.21;100795.03;5078168;27;98331;-71
2023/02/21 04:39:16;;;;;;;12.18;8.43;;;;;;;13.24;72.22;100794.59;5081144;27;97340;-70
2023/02/21 04:41:43;;;;;;;11.23;8.02;;;;;;;12.94;74.16;100795.00;5086673;27;96829;-71
2023/02/21 04:44:09;;;;;;;11.57;9.10;;;;;;;12.94;74.68;100796.78;5079073;27;99211;-71
2023/02/21 04:46:37;;;;;;;12.52;8.50;;;;;;;12.86;75.36;100799.81;5077788;27;99161;-71
2023/02/21 04:49:04;;;;;;;15.10;9.60;;;;;;;13.03;74.85;100791.09;5084558;27;96976;-71
2023/02/21 04:51:30;;;;;;;12.00;8.35;;;;;;;12.86;75.23;100794.50;5078511;27;97139;-72
2023/02/21 04:53:57;;;;;;;13.20;8.65;;;;;;;12.73;76.32;100783.56;5081904;27;99138;-73
2023/02/21 04:56:26;;;;;;;14.30;8.80;;;;;;;12.61;77.69;100788.53;5078056;27;98775;-72
2023/02/21 04:58:52;;;;;;;13.05;9.30;;;;;;;12.84;77.17;100785.75;5078715;27;97858;-73
2023/02/21 05:01:20;;;;;;;15.63;9.23;;;;;;;12.76;77.73;100793.19;5081437;27;97570;-73
2023/02/21 05:03:48;;;;;;;18.63;9.60;;;;;;;12.86;77.37;100799.81;5082578;27;97718;-73
2023/02/21 05:06:19;;;;;;;14.52;10.10;;;;;;;12.97;76.96;100786.94;5081512;27;99151;-72
2023/02/21 05:08:45;;;;;;;14.93;9.98;;;;;;;13.24;75.58;100790.16;5075899;27;97654;-73
2023/02/21 05:11:12;;;;;;;16.98;10.10;;;;;;;13.01;76.00;100804.41;5086059;27;97217;-73
2023/02/21 05:13:38;;;;;;;14.65;10.35;;;;;;;13.00;76.52;100794.72;5084021;27;99139;-74
2023/02/21 05:16:06;;;;;;;13.70;8.90;;;;;;;12.72;77.95;100808.38;5081808;27;97773;-72
2023/02/21 05:18:33;;;;;;;15.93;10.20;;;;;;;13.08;76.43;100799.69;5085887;27;97444;-74
2023/02/21 05:21:01;;;;;;;15.93;10.27;;;;;;;13.13;75.95;100795.06;5078382;27;96827;-72
2023/02/21 05:23:34;;;;;;;15.68;10.32;;;;;;;13.39;75.08;100796.56;5067726;27;98700;-72
2023/02/21 05:26:01;;;;;;;15.82;10.50;;;;;;;13.39;74.78;100797.41;5081680;27;98863;-72
2023/02/21 05:28:28;;;;;;;15.40;10.18;;;;;;;13.23;75.63;100803.50;5082588;27;97540;-71
2023/02/21 05:30:54;;;;;;;12.73;8.95;;;;;;;13.38;75.53;100802.81;5081350;27;97712;-71
2023/02/21 05:33:21;;;;;;;17.45;10.70;;;;;;;13.36;75.71;100794.03;5084127;27;99147;-72
2023/02/21 05:35:47;;;;;;;17.85;10.27;;;;;;;12.81;78.21;100804.44;5077873;27;98021;-71
2023/02/21 05:38:15;;;;;;;17.60;10.85;;;;;;;13.03;77.89;100813.19;5071890;27;97635;-70
2023/02/21 05:40:42;;;;;;;15.35;9.73;;;;;;;12.95;77.65;100796.75;5082297;27;97151;-72
2023/02/21 05:43:08;;;;;;;15.07;9.85;;;;;;;12.59;79.52;100801.00;5076352;27;99009;-72
2023/02/21 05:45:35;;;;;;;16.90;10.63;;;;;;;12.88;78.68;100805.88;5082610;27;98967;-72
2023/02/21 05:48:01;;;;;;;17.88;11.18;;;;;;;12.86;78.58;100813.06;5077092;27;98088;-72
2023/02/21 05:50:28;;;;;;;16.30;10.02;;;;;;;13.00;78.03;100804.47;5079693;27;97315;-73
2023/02/21 05:52:56;;;;;;;15.65;10.05;;;;;;;12.62;78.62;100808.81;5080469;27;97815;-73
2023/02/21 05:55:25;;;;;;;15.25;8.90;;;;;;;12.55;79.95;100808.22;5088916;27;100373;-72
2023/02/21 05:57:51;;;;;;;18.05;11.25;;;;;;;12.31;81.66;100828.66;5076937;27;99810;-70
2023/02/21 06:00:19;;;;;;;18.33;10.25;;;;;;;12.41;81.39;100833.56;5076924;27;97608;-71
2023/02/21 06:02:46;;;;;;;15.05;9.60;;;;;;;12.76;80.07;100828.50;5083779;27;100525;-73
2023/02/21 06:05:12;;;;;;;13.85;9.85;;;;;;;12.82;79.27;100830.03;5077743;27;99269;-71
2023/02/21 06:07:39;;;;;;;19.38;10.27;;;;;;;12.87;78.83;100836.00;5071062;27;97873;-73
2023/02/21 06:10:06;;;;;;;15.15;9.77;;;;;;;13.10;77.85;100842.94;5080269;27;97885;-71
2023/02/21 06:12:33;;;;;;;19.55;10.68;;;;;;;13.36;76.38;100847.13;5076054;27;98871;-73
2023/02/21 06:15:00;;;;;;;15.27;9.75;;;;;;;12.75;78.24;100852.44;5073190;27;97661;-72
2023/02/21 06:17:26;;;;;;;14.82;9.38;;;;;;;12.83;78.89;100850.31;5075637;27;99044;-72
2023/02/21 06:19:55;;;;;;;13.63;8.60;;;;;;;12.68;78.75;100848.31;5088327;27;98085;-74
2023/02/21 06:22:21;;;;;;;13.10;8.15;;;;;;;12.66;79.30;100850.19;5084603;27;99530;-73
2023/02/21 06:24:48;;;;;;;11.95;8.30;;;;;;;12.76;78.69;100859.47;5082212;27;101508;-73
2023/02/21 06:27:15;;;;;;;11.55;7.45;;;;;;;12.75;78.51;100868.34;5078205;27;98682;-74
2023/02/21 06:29:43;;;;;;;10.25;7.30;;;;;;;13.20;76.93;100872.59;5080310;27;96805;-72
2023/02/21 06:32:12;;;;;;;10.25;7.28;;;;;;;13.03;77.00;100868.03;5083702;27;99295;-72
2023/02/21 06:34:38;;;;;;;12.75;7.93;;;;;;;13.15;77.01;100879.00;5082460;27;97154;-70
2023/02/21 06:37:05;;;;;;;9.93;7.30;;;;;;;13.50;75.76;100882.75;5078698;27;97221;-71
2023/02/21 06:39:33;;;;;;;11.80;7.60;;;;;;;13.42;75.54;100873.38;5084902;27;97100;-71
2023/02/21 06:41:59;;;;;;;13.35;7.68;;;;;;;13.64;75.10;100887.41;5083868;27;98915;-70
2023/02/21 06:44:26;;;;;;;12.07;7.40;;;;;;;13.79;74.38;100888.47;5078142;27;99623;-71
2023/02/21 06:46:53;;;;;;;11.45;7.03;;;;;;;13.30;75.96;100887.22;5083680;27;96820;-70
2023/02/21 06:49:20;;;;;;;10.60;6.85;;;;;;;13.48;75.47;100876.63;5086023;27;96939;-70
2023/02/21 06:51:46;;;;;;;10.25;6.82;;;;;;;13.55;75.87;100895.78;5076056;27;99012;-70
2023/02/21 06:54:15;;;;;;;9.85;6.65;;;;;;;13.36;75.65;100889.59;5079655;27;98726;-70
2023/02/21 06:56:43;;;;;;;8.23;5.93;;;;;;;13.40;76.22;100896.47;5083169;27;98792;-69
2023/02/21 06:59:09;;;;;;;7.28;5.78;;;;;;;13.48;75.58;100904.97;5072352;27;97749;-69
2023/02/21 07:01:36;;;;;;;9.60;6.15;;;;;;;13.57;75.10;100916.03;5080089;27;99399;-70
2023/02/21 07:04:04;;;;;;;10.35;6.10;;;;;;;13.65;74.58;100913.03;5079369;27;98841;-68
2023/02/21 07:06:32;;;;;;;10.50;5.88;;;;;;;13.39;75.84;100919.50;5086420;27;97052;-69
2023/02/21 07:08:59;;;;;;;12.77;6.00;;;;;;;13.69;75.04;100924.38;5082111;27;96960;-69
2023/02/21 07:11:25;;;;;;;9.57;5.68;;;;;;;13.42;75.40;100932.66;5076457;27;98914;-71
2023/02/21 07:13:52;;;;;;;9.13;5.68;;;;;;;13.46;75.75;100938.66;5074898;27;98881;-71
2023/02/21 07:16:20;;;;;;;9.98;5.75;;;;;;;13.59;75.50;100942.50;5075697;27;97214;-71
2023/02/21 07:18:47;;;;;;;5.75;4.45;;;;;;;13.53;74.97;100946.28;5075578;27;97464;-70
2023/02/21 07:21:16;;;;;;;6.78;5.10;;;;;;;13.47;75.36;100948.34;5079379;27;99580;-70
2023/02/21 07:23:43;;;;;;;6.68;4.78;;;;;;;13.55;74.64;100965.69;5084479;27;99345;-70
2023/02/21 07:26:09;;;;;;;7.22;4.68;;;;;;;13.80;73.91;100964.56;5083733;27;98307;-70
2023/02/21 07:28:36;;;;;;;9.35;5.55;;;;;;;13.85;74.06;100967.88;5078424;27;97008;-70
2023/02/21 07:31:02;;;;;;;8.98;5.70;;;;;;;13.62;73.79;100966.28;5078065;27;100196;-70
2023/02/21 07:33:28;;;;;;;6.63;4.80;;;;;;;13.75;73.23;100963.94;5081445;27;99990;-70
2023/02/21 07:35:55;;;;;;;6.63;4.70;;;;;;;13.55;73.59;100978.97;5072809;27;97394;-71
2023/02/21 07:38:24;;;;;;;7.68;5.22;;;;;;;13.64;73.69;100979.50;5078653;27;97380;-70
2023/02/21 07:40:53;;;;;;;7.22;4.63;;;;;;;13.89;72.21;100972.13;5081507;27;99376;-70
2023/02/21 07:43:20;;;;;;;5.43;4.18;;;;;;;14.03;72.05;100979.47;5077104;27;99389;-72
2023/02/21 07:45:46;;;;;;;6.30;3.83;;;;;;;13.94;71.51;100973.66;5080391;27;96859;-71
2023/02/21 07:48:13;;;;;;;3.40;3.05;;;;;;;13.66;72.39;100978.47;5086991;27;97184;-71
2023/02/21 07:50:40;;;;;;;4.95;3.13;;;;;;;13.69;72.22;100978.34;5077735;27;99437;-70
2023/02/21 07:53:06;;;;;;;3.55;3.25;;;;;;;13.68;72.19;100981.94;5075918;27;98297;-73
2023/02/21 07:55:34;;;;;;;4.47;3.60;;;;;;;13.78;72.15;100985.06;5083097;27;97203;-71
2023/02/21 07:58:01;;;;;;;4.80;3.30;;;;;;;13.81;71.85;100982.25;5078131;27;96824;-71
2023/02/21 08:00:27;;;;;;;3.63;3.20;;;;;;;13.57;72.08;100984.22;5078310;27;99310;-72
2023/02/21 08:02:54;;;;;;;4.95;3.05;;;;;;;13.82;71.72;100986.63;5085534;27;98310;-72
2023/02/21 08:05:21;;;;;;;3.45;3.13;;;;;;;13.77;71.19;100993.94;5079487;27;98209;-73
2023/02/21 08:07:47;;;;;;;4.82;3.08;;;;;;;13.88;70.61;100996.97;5083887;27;96850;-73
2023/02/21 08:10:21;;;;;;;3.17;2.70;;;;;;;13.50;71.88;100996.03;5082780;27;99165;-72
2023/02/21 08:12:48;;;;;;;3.65;3.00;;;;;;;13.66;71.33;100998.84;5083273;27;98894;-70
2023/02/21 08:15:15;;;;;;;2.42;1.80;;;;;;;13.21;71.64;101007.00;5084291;27;97219;-70
2023/02/21 08:17:41;;;;;;;3.17;1.70;;;;;;;13.57;71.49;101016.06;5081033;27;98941;-71
2023/02/21 08:20:09;;;;;;;1.48;1.38;;;;;;;13.37;70.50;101008.09;5085161;27;99251;-71
2023/02/21 08:22:36;;;;;;;1.88;1.35;;;;;;;13.62;69.44;101024.69;5083612;27;102490;-71
2023/02/21 08:25:05;;;;;;;0.93;0.93;;;;;;;13.65;68.21;101019.25;5079881;27;97258;-70
2023/02/21 08:27:32;;;;;;;3.38;1.10;;;;;;;13.75;68.00;101022.34;5078482;27;97454;-70
2023/02/21 08:30:00;;;;;;;1.10;1.00;;;;;;;13.73;67.15;101021.56;5074919;27;97838;-70
2023/02/21 08:32:26;;;;;;;2.90;1.00;;;;;;;13.73;67.02;101021.56;5081085;27;98775;-70
2023/02/21 08:34:56;;;;;;;0.60;0.52;;;;;;;13.46;66.73;101020.97;5079551;27;97112;-71
2023/02/21 08:37:22;;;;;;;0.98;0.60;;;;;;;13.75;66.51;101014.38;5079040;27;96909;-70
2023/02/21 08:39:52;;;;;;;0.80;0.70;;;;;;;13.45;67.08;101021.91;5083740;27;98912;-72
2023/02/21 08:42:18;;;;;;;1.90;1.08;;;;;;;13.74;66.85;101023.28;5083016;27;98346;-73
2023/02/21 08:44:45;;;;;;;1.73;0.93;;;;;;;14.32;65.07;101026.81;5087635;27;96765;-73
2023/02/21 08:47:15;;;;;;;2.67;0.90;;;;;;;14.85;62.82;101018.13;5085911;27;97279;-72
2023/02/21 08:49:46;;;;;;;2.20;0.50;;;;;;;14.90;61.93;101029.44;5083639;27;99097;-73
2023/02/21 08:52:13;;;;;;;2.25;0.80;;;;;;;14.64;62.35;101028.84;5085798;27;99553;-73
2023/02/21 08:54:40;;;;;;;1.73;0.65;;;;;;;14.21;62.71;101032.63;5082716;27;96658;-72
2023/02/21 08:57:06;;;;;;;1.35;0.80;;;;;;;14.32;63.18;101032.13;5086836;27;97147;-71
2023/02/21 08:59:33;;;;;;;2.13;1.08;;;;;;;14.46;62.58;101035.06;5089378;27;99233;-72
2023/02/21 09:02:00;;;;;;;2.13;0.85;;;;;;;14.72;61.72;101039.13;5084519;27;98890;-72
2023/02/21 09:04:28;;;;;;;1.08;0.60;;;;;;;14.39;61.79;101036.28;5083931;27;96803;-72
2023/02/21 09:06:55;;;;;;;5.15;0.98;;;;;;;14.36;61.98;101039.91;5082512;27;96801;-74
2023/02/21 09:09:22;;;;;;;2.72;0.95;;;;;;;14.72;61.24;101032.03;5080152;27;99505;-73
2023/02/21 09:11:48;;;;;;;4.15;1.10;;;;;;;14.93;60.38;101042.56;5080937;27;97779;-74
2023/02/21 09:14:15;;;;;;;4.03;1.90;;;;;;;15.01;59.97;101032.41;5084202;27;97147;-72
2023/02/21 09:16:42;;;;;;;5.28;1.15;;;;;;;15.14;58.45;101033.53;5081354;27;98750;-73
2023/02/21 09:19:09;;;;;;;3.90;1.30;;;;;;;14.49;58.77;101042.03;5078990;27;100954;-72
2023/02/21 09:21:44;;;;;;;4.18;0.90;;;;;;;14.67;58.48;101038.50;5078778;27;98924;-72
2023/02/21 09:24:10;;;;;;;3.67;1.25;;;;;;;15.22;57.37;101046.47;5082615;27;97284;-72
2023/02/21 09:26:37;;;;;;;6.05;2.45;;;;;;;15.17;56.46;101041.34;5077129;27;99299;-74
2023/02/21 09:29:03;;;;;;;7.13;1.50;;;;;;;14.54;58.20;101048.00;5082351;27;98732;-71
2023/02/21 09:31:29;;;;;;;7.15;1.30;;;;;;;14.56;58.31;101059.44;5080135;27;98694;-70
2023/02/21 09:33:56;;;;;;;7.03;1.48;;;;;;;14.87;57.60;101072.13;5077116;27;98595;-71
2023/02/21 09:36:22;;;;;;;8.30;2.00;;;;;;;14.96;57.13;101069.03;5079254;27;97290;-70
2023/02/21 09:38:51;;;;;;;6.70;1.42;;;;;;;14.58;58.01;101069.03;5077267;27;98986;-72
2023/02/21 09:41:17;;;;;;;5.43;1.40;;;;;;;14.77;57.12;101073.50;5081199;27;98845;-73
2023/02/21 09:43:46;;;;;;;5.25;1.20;;;;;;;15.12;55.89;101078.84;5082603;27;96770;-72
2023/02/21 09:46:17;;;;;;;11.05;2.35;;;;;;;14.97;55.57;101068.06;5077968;27;97295;-72
2023/02/21 09:48:44;;;;;;;4.82;1.38;;;;;;;14.93;56.58;101071.81;5079792;27;99553;-72
2023/02/21 09:51:13;;;;;;;5.25;1.02;;;;;;;14.63;57.31;101076.81;5087169;27;100260;-73
2023/02/21 09:53:43;;;;;;;13.45;1.58;;;;;;;14.37;57.35;101078.00;5080163;27;97618;-72
2023/02/21 09:56:17;;;;;;;5.00;1.83;;;;;;;14.40;57.65;101077.88;5081421;27;97248;-73
2023/02/21 09:58:44;;;;;;;5.55;1.08;;;;;;;13.82;58.65;101079.59;5072806;27;99561;-71
2023/02/21 10:01:22;;;;;;;4.28;0.85;;;;;;;13.94;58.67;101079.06;5085148;27;99349;-73
2023/02/21 10:03:58;;;;;;;7.38;1.13;;;;;;;13.80;59.15;101078.78;5078259;27;97824;-72
2023/02/21 10:06:29;;;;;;;;;;;;;;;13.95;58.22;101081.66;5079536;27;97056;-71
2023/02/21 10:09:02;;;;;;;5.63;1.27;;;;;;;14.48;56.14;101083.72;5081064;27;98454;-72
2023/02/21 10:11:41;;;;;;;8.98;1.27;;;;;;;14.61;56.53;101082.22;5081524;27;98791;-72
2023/02/21 10:14:19;;;;;;;9.30;1.17;;;;;;;15.19;55.64;101076.75;5075695;27;97343;-72
2023/02/21 10:16:52;;;;;;;9.65;1.00;;;;;;;15.27;54.19;101077.22;5079451;27;97390;-72
2023/02/21 10:19:28;;;;;;;8.10;2.00;;;;;;;15.32;53.86;101069.88;5078535;27;98969;-72
2023/02/21 10:21:57;;;;;;;11.38;1.50;;;;;;;15.46;53.23;101078.03;5077899;27;102127;-72
2023/02/21 10:24:26;;;;;;;8.77;1.10;;;;;;;15.40;54.25;101081.00;5077134;27;96895;-71
2023/02/21 10:26:59;;;;;;;13.70;1.50;;;;;;;15.57;53.51;101092.63;5081740;27;97183;-72
2023/02/21 10:29:33;;;;;;;9.90;2.05;;;;;;;15.93;52.34;101104.09;5077140;27;99023;-73
2023/02/21 10:32:03;;;;;;;5.80;1.30;;;;;;;15.63;53.08;101095.84;5077642;27;99245;-72
2023/02/21 10:34:32;;;;;;;6.15;1.13;;;;;;;15.85;52.90;101095.63;5079787;27;98909;-71
2023/02/21 10:37:04;;;;;;;5.35;1.05;;;;;;;15.88;52.69;101106.97;5077546;27;97332;-72
2023/02/21 10:39:35;;;;;;;9.77;1.10;;;;;;;15.28;53.42;101099.41;5088711;27;101655;-71
2023/02/21 10:42:04;;;;;;;4.53;0.90;;;;;;;15.21;54.04;101096.19;5082477;27;97850;-71
2023/02/21 10:44:34;;;;;;;5.15;0.82;;;;;;;15.23;53.50;101090.78;5083380;27;97065;-72
2023/02/21 10:47:08;;;;;;;5.68;0.90;;;;;;;15.29;53.44;101102.00;5083852;27;97191;-70
2023/02/21 10:49:43;;;;;;;4.32;0.93;;;;;;;14.82;54.63;101108.72;5085387;27;98954;-71
2023/02/21 10:52:15;;;;;;;7.95;1.02;;;;;;;14.77;55.42;101105.44;5085065;27;98875;-70
2023/02/21 10:54:41;;;;;;;5.40;1.20;;;;;;;14.60;55.78;101104.41;5078971;27;96867;-70
2023/02/21 10:57:13;;;;;;;4.18;0.80;;;;;;;13.81;58.44;101092.00;5084592;27;97769;-71
2023/02/21 10:59:42;;;;;;;6.38;0.93;;;;;;;14.28;57.37;101110.31;5083426;27;98927;-71
2023/02/21 11:02:29;;;;;;;8.52;1.23;;;;;;;14.41;56.78;101103.53;5087117;27;101360;-70
2023/02/21 11:05:06;;;;;;;3.00;0.73;;;;;;;14.44;56.22;101105.19;5085276;27;97245;-70
2023/02/21 11:07:33;;;;;;;4.10;0.77;;;;;;;14.65;56.32;101107.72;5081269;27;97549;-71
2023/02/21 11:09:59;;;;;;;8.05;1.42;;;;;;;15.18;54.79;101109.63;5083452;27;99288;-72
2023/02/21 11:12:29;;;;;;;5.35;1.30;;;;;;;14.81;55.18;101097.22;5083007;27;99205;-71
2023/02/21 11:15:16;;;;;;;7.45;1.25;;;;;;;15.16;54.28;101106.19;5078432;27;98783;-70
2023/02/21 11:17:44;;;;;;;;;;;;;;;15.61;53.23;101092.41;5081599;27;98410;-71
2023/02/21 11:20:17;;;;;;;7.45;1.15;;;;;;;16.21;51.76;101101.66;5074755;27;99959;-71
2023/02/21 11:22:46;;;;;;;5.90;0.90;;;;;;;15.78;52.21;101104.88;5081100;27;99398;-70
2023/02/21 11:25:22;;;;;;;7.85;1.27;;;;;;;15.62;52.84;101096.78;5079123;27;97297;-70
2023/02/21 11:27:59;;;;;;;;;;;;;;;15.65;52.55;101103.78;5077346;27;97866;-71
2023/02/21 11:30:26;;;;;;;7.18;1.55;;;;;;;14.96;52.43;101098.31;5081841;27;98873;-70
2023/02/21 11:32:56;;;;;;;6.97;1.30;;;;;;;15.13;51.84;101090.34;5083551;27;99102;-71
2023/02/21 11:35:27;;;;;;;10.45;1.80;;;;;;;15.01;52.27;101101.59;5073569;27;99207;-71
2023/02/21 11:37:55;;;;;;;5.95;1.40;;;;;;;14.92;51.97;101102.03;5079135;27;97695;-71
2023/02/21 11:40:29;;;;;;;16.05;1.80;;;;;;;15.53;50.79;101094.59;5081836;27;98873;-70
2023/02/21 11:43:19;;;;;;;10.30;2.00;;;;;;;14.71;51.19;101096.78;5083343;27;99008;-71
2023/02/21 11:45:58;;;;;;;9.15;1.70;;;;;;;15.41;50.23;101095.19;5090410;27;96811;-71
2023/02/21 11:48:30;;;;;;;15.50;2.13;;;;;;;15.11;49.58;101090.44;5078203;27;96852;-71
2023/02/21 11:50:57;;;;;;;12.10;2.00;;;;;;;15.01;49.67;101089.16;5081408;27;98827;-70
2023/02/21 11:53:27;;;;;;;12.90;1.83;;;;;;;14.24;50.98;101104.25;5087670;27;99988;-71
2023/02/21 11:56:02;;;;;;;13.00;1.63;;;;;;;14.33;50.70;101102.97;5086329;27;98391;-71
2023/02/21 11:58:38;;;;;;;12.02;1.83;;;;;;;14.64;50.28;101110.44;5084234;27;97300;-71
2023/02/21 12:01:11;;;;;;;14.87;2.30;;;;;;;14.48;50.92;101112.97;5082099;27;98750;-71
2023/02/21 12:03:57;;;;;;;12.43;1.90;;;;;;;14.75;50.27;101106.38;5080406;27;99695;-71
2023/02/21 12:06:32;;;;;;;13.35;2.03;;;;;;;14.74;50.18;101109.09;5085732;27;97045;-71
2023/02/21 12:09:07;;;;;;;17.03;2.57;;;;;;;15.25;49.23;101103.06;5091611;27;97434;-72
2023/02/21 12:11:57;;;;;;;13.98;2.40;;;;;;;15.73;48.63;101098.91;5083064;27;98925;-71
2023/02/21 12:14:52;;;;;;;8.07;1.98;;;;;;;16.00;48.18;101102.81;5076073;27;98880;-72
2023/02/21 12:17:44;;;;;;;11.65;2.13;;;;;;;15.76;48.42;101093.41;5073227;27;98565;-71
2023/02/21 12:20:24;;;;;;;12.60;2.75;;;;;;;15.65;48.39;101111.75;5079328;27;96839;-71
2023/02/21 12:23:07;;;;;;;13.82;2.20;;;;;;;15.45;48.69;101113.59;5084428;27;99848;-72
2023/02/21 12:25:52;;;;;;;10.32;1.63;;;;;;;14.81;50.70;101117.66;5084778;27;99010;-71
2023/02/21 12:28:25;;;;;;;24.38;2.60;;;;;;;14.87;51.15;101114.69;5084114;27;97276;-71
2023/02/21 12:31:05;;;;;;;8.25;1.80;;;;;;;14.71;51.22;101107.44;5087399;27;96752;-71
2023/02/21 12:33:43;;;;;;;14.35;1.77;;;;;;;14.59;52.38;101126.63;5077597;27;99226;-72
2023/02/21 12:36:26;;;;;;;11.60;1.55;;;;;;;15.04;50.61;101123.59;5080660;27;101305;-72
2023/02/21 12:39:00;;;;;;;12.60;1.67;;;;;;;14.94;49.86;101111.69;5084226;27;96834;-71
2023/02/21 12:41:48;;;;;;;12.77;1.90;;;;;;;14.56;51.39;101121.47;5071054;27;96982;-71
2023/02/21 12:44:18;;;;;;;12.80;1.90;;;;;;;15.01;51.06;101106.91;5084050;27;99215;-73
2023/02/21 12:46:52;;;;;;;11.02;2.03;;;;;;;15.21;50.42;101109.47;5087520;27;101383;-72
2023/02/21 12:49:26;;;;;;;11.60;1.83;;;;;;;15.12;50.42;101099.28;5086242;27;96753;-74
2023/02/21 12:51:58;;;;;;;11.85;1.70;;;;;;;14.77;51.61;101098.28;5087904;27;96926;-73
2023/02/21 12:54:34;;;;;;;12.50;1.80;;;;;;;14.87;51.15;101102.25;5076014;27;99008;-71
2023/02/21 12:57:02;;;;;;;;;;;;;;;15.23;49.77;101109.41;5088428;27;98809;-73
2023/02/21 12:59:47;;;;;;;11.55;2.30;;;;;;;15.45;48.70;101110.94;5084963;27;97692;-72
2023/02/21 13:02:24;;;;;;;15.35;2.55;;;;;;;15.73;48.18;101101.59;5082810;27;96940;-74
2023/02/21 13:04:55;;;;;;;13.07;2.33;;;;;;;15.93;47.36;101104.94;5082204;27;99587;-73
2023/02/21 13:07:27;;;;;;;13.88;2.70;;;;;;;15.84;46.75;101099.22;5074013;27;97660;-73
2023/02/21 13:10:00;;;;;;;10.85;1.90;;;;;;;15.63;47.36;101105.63;5081117;27;96905;-73
2023/02/21 13:12:32;;;;;;;14.73;2.30;;;;;;;16.06;46.25;101102.50;5083477;27;98426;-70
2023/02/21 13:15:04;;;;;;;11.63;2.47;;;;;;;15.85;47.42;101100.94;5080638;27;99577;-69
2023/02/21 13:17:32;;;;;;;7.72;1.80;;;;;;;15.91;46.78;101101.50;5079193;27;101164;-71
2023/02/21 13:20:04;;;;;;;14.65;1.83;;;;;;;15.90;47.09;101101.56;5082774;27;97270;-72
2023/02/21 13:25:29;;;;;;;6.65;1.48;;;;;;;15.20;48.45;101089.13;5079462;27;97121;-71
2023/02/21 13:28:02;;;;;;;10.00;2.08;;;;;;;15.27;48.31;101101.19;5081418;27;100925;-71
2023/02/21 13:30:39;;;;;;;11.18;1.75;;;;;;;15.42;47.58;101103.09;5085474;27;97182;-73
2023/02/21 13:33:21;;;;;;;10.80;1.92;;;;;;;15.94;46.76;101095.16;5086201;27;97409;-74
2023/02/21 13:35:50;;;;;;;11.88;2.35;;;;;;;15.86;46.29;101092.00;5082057;27;99024;-72
2023/02/21 13:38:19;;;;;;;13.70;2.45;;;;;;;15.76;46.91;101085.41;5085349;27;97009;-72
2023/02/21 13:40:50;;;;;;;10.32;1.83;;;;;;;16.32;46.04;101087.78;5081645;27;96729;-73
2023/02/21 13:43:28;;;;;;;12.73;2.10;;;;;;;15.86;46.32;101087.56;5083939;27;96829;-75
2023/02/21 13:46:15;;;;;;;15.68;2.22;;;;;;;16.02;46.19;101087.59;5079795;27;99067;-72
2023/02/21 13:48:43;;;;;;;;;;;;;;;16.14;45.99;101092.31;5084630;27;99720;-73
2023/02/21 13:51:46;;;;;;;9.88;1.77;;;;;;;15.92;46.64;101087.22;5080572;27;97633;-72